sensor_id;sensor_type;location;lat;lon;timestamp;temperature;humidity
360;DHT22;168;48.872;9.226;2023-04-25T00:00:06;9.60;97.00
360;DHT22;168;48.872;9.226;2023-04-25T00:02:36;9.60;96.90
360;DHT22;168;48.872;9.226;2023-04-25T00:05:04;9.50;97.00
360;DHT22;168;48.872;9.226;2023-04-25T00:07:31;9.60;97.00
360;DHT22;168;48.872;9.226;2023-04-25T00:09:59;9.70;96.90
360;DHT22;168;48.872;9.226;2023-04-25T00:12:27;9.70;97.00
360;DHT22;168;48.872;9.226;2023-04-25T00:14:55;9.80;96.70
360;DHT22;168;48.872;9.226;2023-04-25T00:17:24;9.80;96.90
360;DHT22;168;48.872;9.226;2023-04-25T00:19:53;9.80;96.70
360;DHT22;168;48.872;9.226;2023-04-25T00:22:21;9.80;96.90
360;DHT22;168;48.872;9.226;2023-04-25T00:24:49;9.80;97.10
360;DHT22;168;48.872;9.226;2023-04-25T00:27:16;9.90;97.10
360;DHT22;168;48.872;9.226;2023-04-25T00:29:43;10.00;97.10
360;DHT22;168;48.872;9.226;2023-04-25T00:32:11;10.00;97.00
360;DHT22;168;48.872;9.226;2023-04-25T00:34:38;10.00;97.00
360;DHT22;168;48.872;9.226;2023-04-25T00:37:07;10.00;97.10
360;DHT22;168;48.872;9.226;2023-04-25T00:39:36;10.10;97.10
360;DHT22;168;48.872;9.226;2023-04-25T00:42:04;10.10;97.00
360;DHT22;168;48.872;9.226;2023-04-25T00:44:31;10.10;97.00
360;DHT22;168;48.872;9.226;2023-04-25T00:47:00;10.20;96.90
360;DHT22;168;48.872;9.226;2023-04-25T00:49:33;10.20;96.80
360;DHT22;168;48.872;9.226;2023-04-25T00:52:00;10.20;96.70
360;DHT22;168;48.872;9.226;2023-04-25T00:54:30;10.20;96.50
360;DHT22;168;48.872;9.226;2023-04-25T00:56:57;10.30;96.40
360;DHT22;168;48.872;9.226;2023-04-25T00:59:27;10.30;96.40
360;DHT22;168;48.872;9.226;2023-04-25T01:01:55;10.30;96.10
360;DHT22;168;48.872;9.226;2023-04-25T01:04:23;10.30;96.30
360;DHT22;168;48.872;9.226;2023-04-25T01:06:51;10.30;96.40
360;DHT22;168;48.872;9.226;2023-04-25T01:09:20;10.30;96.00
360;DHT22;168;48.872;9.226;2023-04-25T01:11:49;10.30;96.00
360;DHT22;168;48.872;9.226;2023-04-25T01:14:17;10.30;95.90
360;DHT22;168;48.872;9.226;2023-04-25T01:16:44;10.20;95.60
360;DHT22;168;48.872;9.226;2023-04-25T01:19:16;10.10;95.80
360;DHT22;168;48.872;9.226;2023-04-25T01:21:45;10.10;95.90
360;DHT22;168;48.872;9.226;2023-04-25T01:24:13;10.10;95.90
360;DHT22;168;48.872;9.226;2023-04-25T01:26:42;10.10;95.50
360;DHT22;168;48.872;9.226;2023-04-25T01:29:15;10.10;95.50
360;DHT22;168;48.872;9.226;2023-04-25T01:31:43;10.10;95.70
360;DHT22;168;48.872;9.226;2023-04-25T01:34:11;10.20;95.40
360;DHT22;168;48.872;9.226;2023-04-25T01:36:39;10.30;94.90
360;DHT22;168;48.872;9.226;2023-04-25T01:39:08;10.20;95.00
360;DHT22;168;48.872;9.226;2023-04-25T01:41:36;10.20;94.70
360;DHT22;168;48.872;9.226;2023-04-25T01:44:04;10.10;94.90
360;DHT22;168;48.872;9.226;2023-04-25T01:46:33;10.10;94.90
360;DHT22;168;48.872;9.226;2023-04-25T01:49:01;10.00;95.20
360;DHT22;168;48.872;9.226;2023-04-25T01:51:30;10.00;95.30
360;DHT22;168;48.872;9.226;2023-04-25T01:53:57;10.10;95.20
360;DHT22;168;48.872;9.226;2023-04-25T01:56:30;10.20;94.80
360;DHT22;168;48.872;9.226;2023-04-25T01:58:57;10.00;95.20
360;DHT22;168;48.872;9.226;2023-04-25T02:01:25;10.00;95.40
360;DHT22;168;48.872;9.226;2023-04-25T02:03:52;10.10;95.30
360;DHT22;168;48.872;9.226;2023-04-25T02:06:20;10.20;95.30
360;DHT22;168;48.872;9.226;2023-04-25T02:08:47;10.20;95.10
360;DHT22;168;48.872;9.226;2023-04-25T02:11:15;10.10;95.40
360;DHT22;168;48.872;9.226;2023-04-25T02:13:43;10.10;95.20
360;DHT22;168;48.872;9.226;2023-04-25T02:16:11;10.10;95.40
360;DHT22;168;48.872;9.226;2023-04-25T02:18:39;10.20;95.50
360;DHT22;168;48.872;9.226;2023-04-25T02:21:06;10.20;95.60
360;DHT22;168;48.872;9.226;2023-04-25T02:23:34;10.20;95.20
360;DHT22;168;48.872;9.226;2023-04-25T02:26:01;10.20;95.60
360;DHT22;168;48.872;9.226;2023-04-25T02:28:29;10.20;95.50
360;DHT22;168;48.872;9.226;2023-04-25T02:30:58;10.10;95.70
360;DHT22;168;48.872;9.226;2023-04-25T02:33:25;10.10;95.90
360;DHT22;168;48.872;9.226;2023-04-25T02:35:53;9.90;96.30
360;DHT22;168;48.872;9.226;2023-04-25T02:38:20;9.90;96.30
360;DHT22;168;48.872;9.226;2023-04-25T02:40:47;9.80;96.60
360;DHT22;168;48.872;9.226;2023-04-25T02:43:15;9.80;96.80
360;DHT22;168;48.872;9.226;2023-04-25T02:45:42;9.70;97.00
360;DHT22;168;48.872;9.226;2023-04-25T02:48:12;9.70;97.10
360;DHT22;168;48.872;9.226;2023-04-25T02:50:39;9.70;97.00
360;DHT22;168;48.872;9.226;2023-04-25T02:53:07;9.60;97.30
360;DHT22;168;48.872;9.226;2023-04-25T02:55:35;9.60;97.50
360;DHT22;168;48.872;9.226;2023-04-25T02:58:02;9.60;97.40
360;DHT22;168;48.872;9.226;2023-04-25T03:00:30;9.70;97.10
360;DHT22;168;48.872;9.226;2023-04-25T03:02:57;9.70;97.00
360;DHT22;168;48.872;9.226;2023-04-25T03:05:27;9.70;97.20
360;DHT22;168;48.872;9.226;2023-04-25T03:07:54;9.70;97.30
360;DHT22;168;48.872;9.226;2023-04-25T03:10:22;9.70;97.20
360;DHT22;168;48.872;9.226;2023-04-25T03:12:50;9.60;97.20
360;DHT22;168;48.872;9.226;2023-04-25T03:15:17;9.60;97.20
360;DHT22;168;48.872;9.226;2023-04-25T03:17:44;9.60;97.50
360;DHT22;168;48.872;9.226;2023-04-25T03:20:12;9.60;97.20
360;DHT22;168;48.872;9.226;2023-04-25T03:22:41;9.70;97.10
360;DHT22;168;48.872;9.226;2023-04-25T03:25:09;9.80;97.00
360;DHT22;168;48.872;9.226;2023-04-25T03:27:36;9.80;96.80
360;DHT22;168;48.872;9.226;2023-04-25T03:30:05;9.80;96.80
360;DHT22;168;48.872;9.226;2023-04-25T03:32:33;9.70;96.90
360;DHT22;168;48.872;9.226;2023-04-25T03:35:01;9.70;97.00
360;DHT22;168;48.872;9.226;2023-04-25T03:37:29;9.80;96.70
360;DHT22;168;48.872;9.226;2023-04-25T03:39:58;9.80;96.80
360;DHT22;168;48.872;9.226;2023-04-25T03:42:25;9.80;96.90
360;DHT22;168;48.872;9.226;2023-04-25T03:45:03;9.90;96.40
360;DHT22;168;48.872;9.226;2023-04-25T03:47:30;9.90;96.40
360;DHT22;168;48.872;9.226;2023-04-25T03:49:58;9.80;96.70
360;DHT22;168;48.872;9.226;2023-04-25T03:52:27;9.70;96.80
360;DHT22;168;48.872;9.226;2023-04-25T03:54:55;9.70;96.90
360;DHT22;168;48.872;9.226;2023-04-25T03:57:26;9.80;97.00
360;DHT22;168;48.872;9.226;2023-04-25T03:59:53;9.80;96.70
360;DHT22;168;48.872;9.226;2023-04-25T04:02:21;9.70;96.60
360;DHT22;168;48.872;9.226;2023-04-25T04:04:48;9.70;96.60
360;DHT22;168;48.872;9.226;2023-04-25T04:07:16;9.70;96.50
360;DHT22;168;48.872;9.226;2023-04-25T04:09:43;9.60;96.60
360;DHT22;168;48.872;9.226;2023-04-25T04:12:11;9.60;96.80
360;DHT22;168;48.872;9.226;2023-04-25T04:14:40;9.60;96.90
360;DHT22;168;48.872;9.226;2023-04-25T04:17:07;9.70;96.80
360;DHT22;168;48.872;9.226;2023-04-25T04:19:34;9.70;96.70
360;DHT22;168;48.872;9.226;2023-04-25T04:22:02;9.70;96.60
360;DHT22;168;48.872;9.226;2023-04-25T04:24:29;9.60;96.80
360;DHT22;168;48.872;9.226;2023-04-25T04:26:57;9.50;96.80
360;DHT22;168;48.872;9.226;2023-04-25T04:29:25;9.40;97.00
360;DHT22;168;48.872;9.226;2023-04-25T04:31:53;9.40;97.20
360;DHT22;168;48.872;9.226;2023-04-25T04:34:21;9.50;97.10
360;DHT22;168;48.872;9.226;2023-04-25T04:36:50;9.50;97.10
360;DHT22;168;48.872;9.226;2023-04-25T04:39:21;9.50;97.10
360;DHT22;168;48.872;9.226;2023-04-25T04:41:48;9.50;97.20
360;DHT22;168;48.872;9.226;2023-04-25T04:44:17;9.50;97.40
360;DHT22;168;48.872;9.226;2023-04-25T04:46:44;9.50;97.20
360;DHT22;168;48.872;9.226;2023-04-25T04:49:14;9.50;97.60
360;DHT22;168;48.872;9.226;2023-04-25T04:51:41;9.60;97.50
360;DHT22;168;48.872;9.226;2023-04-25T04:54:10;9.60;97.10
360;DHT22;168;48.872;9.226;2023-04-25T04:56:37;9.70;97.00
360;DHT22;168;48.872;9.226;2023-04-25T04:59:05;9.60;97.10
360;DHT22;168;48.872;9.226;2023-04-25T05:01:33;9.60;97.00
360;DHT22;168;48.872;9.226;2023-04-25T05:04:01;9.60;96.90
360;DHT22;168;48.872;9.226;2023-04-25T05:06:31;9.60;97.10
360;DHT22;168;48.872;9.226;2023-04-25T05:08:59;9.60;97.00
360;DHT22;168;48.872;9.226;2023-04-25T05:11:27;9.50;97.10
360;DHT22;168;48.872;9.226;2023-04-25T05:13:54;9.60;97.10
360;DHT22;168;48.872;9.226;2023-04-25T05:16:22;9.70;97.00
360;DHT22;168;48.872;9.226;2023-04-25T05:19:15;9.80;96.90
360;DHT22;168;48.872;9.226;2023-04-25T05:21:45;9.70;96.80
360;DHT22;168;48.872;9.226;2023-04-25T05:24:13;9.80;96.80
360;DHT22;168;48.872;9.226;2023-04-25T05:26:40;9.90;96.70
360;DHT22;168;48.872;9.226;2023-04-25T05:29:11;10.00;96.60
360;DHT22;168;48.872;9.226;2023-04-25T05:31:39;10.10;96.00
360;DHT22;168;48.872;9.226;2023-04-25T05:34:07;10.20;95.90
360;DHT22;168;48.872;9.226;2023-04-25T05:36:35;10.30;95.90
360;DHT22;168;48.872;9.226;2023-04-25T05:39:04;10.50;95.30
360;DHT22;168;48.872;9.226;2023-04-25T05:41:32;10.50;94.90
360;DHT22;168;48.872;9.226;2023-04-25T05:44:02;10.50;95.00
360;DHT22;168;48.872;9.226;2023-04-25T05:49:35;10.50;95.10
360;DHT22;168;48.872;9.226;2023-04-25T05:52:18;10.60;94.70
360;DHT22;168;48.872;9.226;2023-04-25T05:54:47;10.50;94.80
360;DHT22;168;48.872;9.226;2023-04-25T05:57:28;10.40;95.00
360;DHT22;168;48.872;9.226;2023-04-25T05:59:55;10.30;95.60
360;DHT22;168;48.872;9.226;2023-04-25T06:02:24;10.30;95.60
360;DHT22;168;48.872;9.226;2023-04-25T06:04:52;10.30;95.80
360;DHT22;168;48.872;9.226;2023-04-25T06:07:25;10.30;95.60
360;DHT22;168;48.872;9.226;2023-04-25T06:09:57;10.30;95.80
360;DHT22;168;48.872;9.226;2023-04-25T06:12:26;10.50;95.60
360;DHT22;168;48.872;9.226;2023-04-25T06:14:53;10.50;95.30
360;DHT22;168;48.872;9.226;2023-04-25T06:17:25;10.60;95.00
360;DHT22;168;48.872;9.226;2023-04-25T06:19:54;10.60;95.00
360;DHT22;168;48.872;9.226;2023-04-25T06:22:22;10.70;94.90
360;DHT22;168;48.872;9.226;2023-04-25T06:25:07;10.80;94.30
360;DHT22;168;48.872;9.226;2023-04-25T06:27:35;10.90;93.90
360;DHT22;168;48.872;9.226;2023-04-25T06:30:11;10.90;94.00
360;DHT22;168;48.872;9.226;2023-04-25T06:32:39;10.90;93.80
360;DHT22;168;48.872;9.226;2023-04-25T06:35:07;10.90;93.70
360;DHT22;168;48.872;9.226;2023-04-25T06:37:52;10.90;93.80
360;DHT22;168;48.872;9.226;2023-04-25T06:40:22;11.00;93.40
360;DHT22;168;48.872;9.226;2023-04-25T06:42:50;11.10;93.20
360;DHT22;168;48.872;9.226;2023-04-25T06:45:24;11.20;92.70
360;DHT22;168;48.872;9.226;2023-04-25T06:47:55;11.30;92.70
360;DHT22;168;48.872;9.226;2023-04-25T06:50:23;11.50;92.20
360;DHT22;168;48.872;9.226;2023-04-25T06:52:51;11.80;91.00
360;DHT22;168;48.872;9.226;2023-04-25T06:55:39;11.80;90.40
360;DHT22;168;48.872;9.226;2023-04-25T06:58:07;11.70;90.70
360;DHT22;168;48.872;9.226;2023-04-25T07:00:38;11.70;91.00
360;DHT22;168;48.872;9.226;2023-04-25T07:03:06;11.90;89.50
360;DHT22;168;48.872;9.226;2023-04-25T07:05:36;11.90;89.00
360;DHT22;168;48.872;9.226;2023-04-25T07:08:04;11.90;89.20
360;DHT22;168;48.872;9.226;2023-04-25T07:10:33;11.70;89.30
360;DHT22;168;48.872;9.226;2023-04-25T07:13:01;11.60;90.10
360;DHT22;168;48.872;9.226;2023-04-25T07:15:38;11.50;90.50
360;DHT22;168;48.872;9.226;2023-04-25T07:18:08;11.50;90.90
360;DHT22;168;48.872;9.226;2023-04-25T07:20:49;11.40;91.70
360;DHT22;168;48.872;9.226;2023-04-25T07:23:19;11.40;92.10
360;DHT22;168;48.872;9.226;2023-04-25T07:25:49;11.40;91.50
360;DHT22;168;48.872;9.226;2023-04-25T07:28:16;11.40;92.10
360;DHT22;168;48.872;9.226;2023-04-25T07:30:54;11.40;92.10
360;DHT22;168;48.872;9.226;2023-04-25T07:36:06;11.40;91.60
360;DHT22;168;48.872;9.226;2023-04-25T07:38:33;11.40;91.20
360;DHT22;168;48.872;9.226;2023-04-25T07:41:02;11.40;91.60
360;DHT22;168;48.872;9.226;2023-04-25T07:43:30;11.20;92.10
360;DHT22;168;48.872;9.226;2023-04-25T07:45:57;11.10;92.60
360;DHT22;168;48.872;9.226;2023-04-25T07:48:25;11.00;93.60
360;DHT22;168;48.872;9.226;2023-04-25T07:50:52;11.00;94.70
360;DHT22;168;48.872;9.226;2023-04-25T07:53:22;10.90;95.80
360;DHT22;168;48.872;9.226;2023-04-25T07:55:50;10.80;96.00
360;DHT22;168;48.872;9.226;2023-04-25T07:58:23;10.70;96.60
360;DHT22;168;48.872;9.226;2023-04-25T08:00:50;10.60;96.50
360;DHT22;168;48.872;9.226;2023-04-25T08:03:21;10.60;96.30
360;DHT22;168;48.872;9.226;2023-04-25T08:05:48;10.40;96.90
360;DHT22;168;48.872;9.226;2023-04-25T08:08:16;10.30;96.90
360;DHT22;168;48.872;9.226;2023-04-25T08:10:43;10.20;97.30
360;DHT22;168;48.872;9.226;2023-04-25T08:13:10;10.30;97.40
360;DHT22;168;48.872;9.226;2023-04-25T08:15:39;10.10;97.00
360;DHT22;168;48.872;9.226;2023-04-25T08:18:06;9.90;97.10
360;DHT22;168;48.872;9.226;2023-04-25T08:20:34;9.70;96.60
360;DHT22;168;48.872;9.226;2023-04-25T08:23:01;9.60;95.90
360;DHT22;168;48.872;9.226;2023-04-25T08:25:29;9.60;94.80
360;DHT22;168;48.872;9.226;2023-04-25T08:27:56;9.60;93.60
360;DHT22;168;48.872;9.226;2023-04-25T08:30:25;9.70;94.60
360;DHT22;168;48.872;9.226;2023-04-25T08:32:54;9.80;94.70
360;DHT22;168;48.872;9.226;2023-04-25T08:35:21;9.80;95.30
360;DHT22;168;48.872;9.226;2023-04-25T08:37:49;10.00;96.60
360;DHT22;168;48.872;9.226;2023-04-25T08:40:17;9.90;95.80
360;DHT22;168;48.872;9.226;2023-04-25T08:42:53;10.00;95.60
360;DHT22;168;48.872;9.226;2023-04-25T08:45:20;9.90;95.20
360;DHT22;168;48.872;9.226;2023-04-25T08:47:50;10.10;95.20
360;DHT22;168;48.872;9.226;2023-04-25T08:50:20;10.00;95.00
360;DHT22;168;48.872;9.226;2023-04-25T08:52:50;10.00;95.60
360;DHT22;168;48.872;9.226;2023-04-25T08:55:19;9.90;95.20
360;DHT22;168;48.872;9.226;2023-04-25T08:57:47;9.80;94.20
360;DHT22;168;48.872;9.226;2023-04-25T09:00:15;9.70;93.60
360;DHT22;168;48.872;9.226;2023-04-25T09:02:43;9.70;93.70
360;DHT22;168;48.872;9.226;2023-04-25T09:05:12;9.70;92.00
360;DHT22;168;48.872;9.226;2023-04-25T09:07:41;9.80;94.40
360;DHT22;168;48.872;9.226;2023-04-25T09:10:09;9.80;95.00
360;DHT22;168;48.872;9.226;2023-04-25T09:12:36;9.70;94.10
360;DHT22;168;48.872;9.226;2023-04-25T09:15:06;9.70;94.70
360;DHT22;168;48.872;9.226;2023-04-25T09:17:33;9.70;95.10
360;DHT22;168;48.872;9.226;2023-04-25T09:20:08;9.70;94.70
360;DHT22;168;48.872;9.226;2023-04-25T09:22:36;9.50;94.40
360;DHT22;168;48.872;9.226;2023-04-25T09:25:08;9.50;93.50
360;DHT22;168;48.872;9.226;2023-04-25T09:27:36;9.50;94.90
360;DHT22;168;48.872;9.226;2023-04-25T09:30:04;9.50;93.30
360;DHT22;168;48.872;9.226;2023-04-25T09:32:32;9.50;92.80
360;DHT22;168;48.872;9.226;2023-04-25T09:34:59;9.50;92.60
360;DHT22;168;48.872;9.226;2023-04-25T09:37:28;9.50;91.40
360;DHT22;168;48.872;9.226;2023-04-25T09:39:56;9.60;92.70
360;DHT22;168;48.872;9.226;2023-04-25T09:42:29;9.70;93.10
360;DHT22;168;48.872;9.226;2023-04-25T09:45:00;9.70;92.70
360;DHT22;168;48.872;9.226;2023-04-25T09:47:28;9.70;92.90
360;DHT22;168;48.872;9.226;2023-04-25T09:49:56;9.80;91.50
360;DHT22;168;48.872;9.226;2023-04-25T09:52:24;9.90;93.90
360;DHT22;168;48.872;9.226;2023-04-25T09:54:52;10.00;94.40
360;DHT22;168;48.872;9.226;2023-04-25T09:57:21;10.10;95.20
360;DHT22;168;48.872;9.226;2023-04-25T09:59:51;10.20;96.20
360;DHT22;168;48.872;9.226;2023-04-25T10:02:20;10.20;95.50
360;DHT22;168;48.872;9.226;2023-04-25T10:04:49;10.30;95.10
360;DHT22;168;48.872;9.226;2023-04-25T10:07:19;10.40;95.80
360;DHT22;168;48.872;9.226;2023-04-25T10:09:48;10.40;96.40
360;DHT22;168;48.872;9.226;2023-04-25T10:12:17;10.40;96.50
360;DHT22;168;48.872;9.226;2023-04-25T10:14:44;10.40;96.50
360;DHT22;168;48.872;9.226;2023-04-25T10:17:14;10.40;97.30
360;DHT22;168;48.872;9.226;2023-04-25T10:19:42;10.30;97.20
360;DHT22;168;48.872;9.226;2023-04-25T10:22:14;10.20;97.10
360;DHT22;168;48.872;9.226;2023-04-25T10:24:44;9.90;96.50
360;DHT22;168;48.872;9.226;2023-04-25T10:27:12;9.40;94.70
360;DHT22;168;48.872;9.226;2023-04-25T10:29:41;9.10;92.50
360;DHT22;168;48.872;9.226;2023-04-25T10:32:09;8.80;90.10
360;DHT22;168;48.872;9.226;2023-04-25T10:34:42;8.50;88.10
360;DHT22;168;48.872;9.226;2023-04-25T10:37:15;8.40;86.50
360;DHT22;168;48.872;9.226;2023-04-25T10:39:42;8.30;87.30
360;DHT22;168;48.872;9.226;2023-04-25T10:42:10;8.20;86.10
360;DHT22;168;48.872;9.226;2023-04-25T10:44:38;8.10;85.10
360;DHT22;168;48.872;9.226;2023-04-25T10:47:07;7.90;84.90
360;DHT22;168;48.872;9.226;2023-04-25T10:49:36;7.80;83.70
360;DHT22;168;48.872;9.226;2023-04-25T10:52:19;7.70;84.00
360;DHT22;168;48.872;9.226;2023-04-25T10:54:53;7.60;81.40
360;DHT22;168;48.872;9.226;2023-04-25T10:57:37;7.50;79.20
360;DHT22;168;48.872;9.226;2023-04-25T11:00:08;7.50;79.60
360;DHT22;168;48.872;9.226;2023-04-25T11:02:37;7.40;79.20
360;DHT22;168;48.872;9.226;2023-04-25T11:05:06;7.40;78.30
360;DHT22;168;48.872;9.226;2023-04-25T11:07:46;7.40;77.50
360;DHT22;168;48.872;9.226;2023-04-25T11:10:16;7.50;75.10
360;DHT22;168;48.872;9.226;2023-04-25T11:12:45;7.70;73.60
360;DHT22;168;48.872;9.226;2023-04-25T11:15:12;7.90;72.40
360;DHT22;168;48.872;9.226;2023-04-25T11:17:40;8.10;71.30
360;DHT22;168;48.872;9.226;2023-04-25T11:20:09;8.30;70.40
360;DHT22;168;48.872;9.226;2023-04-25T11:22:41;8.60;70.20
360;DHT22;168;48.872;9.226;2023-04-25T11:25:13;8.80;71.30
360;DHT22;168;48.872;9.226;2023-04-25T11:27:49;8.80;72.90
360;DHT22;168;48.872;9.226;2023-04-25T11:30:18;8.90;75.20
360;DHT22;168;48.872;9.226;2023-04-25T11:32:45;8.80;73.90
360;DHT22;168;48.872;9.226;2023-04-25T11:35:13;8.90;74.60
360;DHT22;168;48.872;9.226;2023-04-25T11:37:43;9.00;76.30
360;DHT22;168;48.872;9.226;2023-04-25T11:40:11;9.00;77.10
360;DHT22;168;48.872;9.226;2023-04-25T11:42:38;9.10;76.50
360;DHT22;168;48.872;9.226;2023-04-25T11:45:07;9.10;75.90
360;DHT22;168;48.872;9.226;2023-04-25T11:47:35;9.20;78.50
360;DHT22;168;48.872;9.226;2023-04-25T11:50:04;9.20;81.30
360;DHT22;168;48.872;9.226;2023-04-25T11:52:39;9.30;85.40
360;DHT22;168;48.872;9.226;2023-04-25T11:55:10;9.20;84.30
360;DHT22;168;48.872;9.226;2023-04-25T11:57:38;9.20;84.20
360;DHT22;168;48.872;9.226;2023-04-25T12:00:09;9.10;88.70
360;DHT22;168;48.872;9.226;2023-04-25T12:02:37;9.10;86.80
360;DHT22;168;48.872;9.226;2023-04-25T12:05:06;9.10;91.80
360;DHT22;168;48.872;9.226;2023-04-25T12:07:35;9.10;87.20
360;DHT22;168;48.872;9.226;2023-04-25T12:10:05;9.00;84.00
360;DHT22;168;48.872;9.226;2023-04-25T12:12:35;9.10;82.80
360;DHT22;168;48.872;9.226;2023-04-25T12:15:11;9.30;84.60
360;DHT22;168;48.872;9.226;2023-04-25T12:17:41;9.30;86.50
360;DHT22;168;48.872;9.226;2023-04-25T12:20:10;9.40;86.20
360;DHT22;168;48.872;9.226;2023-04-25T12:22:41;9.40;88.10
360;DHT22;168;48.872;9.226;2023-04-25T12:25:11;9.50;88.10
360;DHT22;168;48.872;9.226;2023-04-25T12:27:40;9.50;86.30
360;DHT22;168;48.872;9.226;2023-04-25T12:30:10;9.50;93.50
360;DHT22;168;48.872;9.226;2023-04-25T12:32:37;9.40;93.00
360;DHT22;168;48.872;9.226;2023-04-25T12:35:06;9.30;92.80
360;DHT22;168;48.872;9.226;2023-04-25T12:37:33;9.30;88.30
360;DHT22;168;48.872;9.226;2023-04-25T12:40:01;9.50;85.80
360;DHT22;168;48.872;9.226;2023-04-25T12:42:30;9.70;87.60
360;DHT22;168;48.872;9.226;2023-04-25T12:44:58;10.00;88.00
360;DHT22;168;48.872;9.226;2023-04-25T12:47:26;10.40;86.40
360;DHT22;168;48.872;9.226;2023-04-25T12:49:53;10.70;90.90
360;DHT22;168;48.872;9.226;2023-04-25T12:52:21;11.00;96.70
360;DHT22;168;48.872;9.226;2023-04-25T12:54:48;11.10;96.70
360;DHT22;168;48.872;9.226;2023-04-25T12:57:15;11.10;94.90
360;DHT22;168;48.872;9.226;2023-04-25T12:59:42;11.10;94.40
360;DHT22;168;48.872;9.226;2023-04-25T13:02:11;11.30;96.80
360;DHT22;168;48.872;9.226;2023-04-25T13:04:39;11.30;97.00
360;DHT22;168;48.872;9.226;2023-04-25T13:07:06;11.40;97.10
360;DHT22;168;48.872;9.226;2023-04-25T13:09:33;11.40;95.80
360;DHT22;168;48.872;9.226;2023-04-25T13:12:01;11.50;96.60
360;DHT22;168;48.872;9.226;2023-04-25T13:14:28;11.60;97.40
360;DHT22;168;48.872;9.226;2023-04-25T13:16:56;11.80;97.20
360;DHT22;168;48.872;9.226;2023-04-25T13:19:24;11.90;96.70
360;DHT22;168;48.872;9.226;2023-04-25T13:21:52;11.80;96.10
360;DHT22;168;48.872;9.226;2023-04-25T13:24:19;11.90;96.00
360;DHT22;168;48.872;9.226;2023-04-25T13:26:46;11.80;95.70
360;DHT22;168;48.872;9.226;2023-04-25T13:29:14;11.80;96.40
360;DHT22;168;48.872;9.226;2023-04-25T13:31:41;11.50;96.00
360;DHT22;168;48.872;9.226;2023-04-25T13:34:09;11.50;96.90
360;DHT22;168;48.872;9.226;2023-04-25T13:36:39;11.60;96.60
360;DHT22;168;48.872;9.226;2023-04-25T13:39:07;11.60;96.60
360;DHT22;168;48.872;9.226;2023-04-25T13:41:34;11.50;96.30
360;DHT22;168;48.872;9.226;2023-04-25T13:44:01;11.50;96.70
360;DHT22;168;48.872;9.226;2023-04-25T13:46:29;11.60;97.10
360;DHT22;168;48.872;9.226;2023-04-25T13:48:57;11.60;96.30
360;DHT22;168;48.872;9.226;2023-04-25T13:51:24;11.50;96.00
360;DHT22;168;48.872;9.226;2023-04-25T13:53:53;11.50;95.90
360;DHT22;168;48.872;9.226;2023-04-25T13:56:21;11.50;96.50
360;DHT22;168;48.872;9.226;2023-04-25T13:58:50;11.60;96.50
360;DHT22;168;48.872;9.226;2023-04-25T14:01:17;11.70;95.90
360;DHT22;168;48.872;9.226;2023-04-25T14:03:46;11.70;96.20
360;DHT22;168;48.872;9.226;2023-04-25T14:06:14;11.80;96.20
360;DHT22;168;48.872;9.226;2023-04-25T14:08:53;11.70;95.00
360;DHT22;168;48.872;9.226;2023-04-25T14:11:21;11.60;95.90
360;DHT22;168;48.872;9.226;2023-04-25T14:13:49;11.70;95.70
360;DHT22;168;48.872;9.226;2023-04-25T14:16:17;11.80;95.40
360;DHT22;168;48.872;9.226;2023-04-25T14:18:51;11.90;95.40
360;DHT22;168;48.872;9.226;2023-04-25T14:21:21;12.20;94.40
360;DHT22;168;48.872;9.226;2023-04-25T14:23:50;12.30;93.30
360;DHT22;168;48.872;9.226;2023-04-25T14:26:20;12.40;92.60
360;DHT22;168;48.872;9.226;2023-04-25T14:28:48;12.40;93.00
360;DHT22;168;48.872;9.226;2023-04-25T14:31:16;12.50;93.00
360;DHT22;168;48.872;9.226;2023-04-25T14:33:44;12.80;92.50
360;DHT22;168;48.872;9.226;2023-04-25T14:36:12;13.10;90.10
360;DHT22;168;48.872;9.226;2023-04-25T14:38:40;13.20;89.60
360;DHT22;168;48.872;9.226;2023-04-25T14:41:07;13.00;89.00
360;DHT22;168;48.872;9.226;2023-04-25T14:43:37;12.60;90.50
360;DHT22;168;48.872;9.226;2023-04-25T14:46:06;12.50;91.80
360;DHT22;168;48.872;9.226;2023-04-25T14:48:33;12.30;92.40
360;DHT22;168;48.872;9.226;2023-04-25T14:51:01;12.30;92.30
360;DHT22;168;48.872;9.226;2023-04-25T14:53:28;12.20;92.80
360;DHT22;168;48.872;9.226;2023-04-25T14:55:56;12.10;92.40
360;DHT22;168;48.872;9.226;2023-04-25T14:58:24;12.00;93.40
360;DHT22;168;48.872;9.226;2023-04-25T15:00:52;12.10;92.10
360;DHT22;168;48.872;9.226;2023-04-25T15:03:20;12.10;91.90
360;DHT22;168;48.872;9.226;2023-04-25T15:05:47;12.00;92.70
360;DHT22;168;48.872;9.226;2023-04-25T15:08:14;12.00;91.90
360;DHT22;168;48.872;9.226;2023-04-25T15:10:42;12.00;90.60
360;DHT22;168;48.872;9.226;2023-04-25T15:13:09;12.10;91.60
360;DHT22;168;48.872;9.226;2023-04-25T15:15:37;12.20;92.90
360;DHT22;168;48.872;9.226;2023-04-25T15:18:07;12.30;92.10
360;DHT22;168;48.872;9.226;2023-04-25T15:20:34;12.30;90.50
360;DHT22;168;48.872;9.226;2023-04-25T15:23:03;12.30;91.90
360;DHT22;168;48.872;9.226;2023-04-25T15:25:31;12.50;91.60
360;DHT22;168;48.872;9.226;2023-04-25T15:27:59;12.70;88.50
360;DHT22;168;48.872;9.226;2023-04-25T15:30:26;12.70;87.70
360;DHT22;168;48.872;9.226;2023-04-25T15:32:53;12.60;86.70
360;DHT22;168;48.872;9.226;2023-04-25T15:35:22;12.50;88.80
360;DHT22;168;48.872;9.226;2023-04-25T15:37:50;12.60;88.50
360;DHT22;168;48.872;9.226;2023-04-25T15:40:17;12.60;88.10
360;DHT22;168;48.872;9.226;2023-04-25T15:42:46;12.50;87.90
360;DHT22;168;48.872;9.226;2023-04-25T15:45:14;12.50;88.20
360;DHT22;168;48.872;9.226;2023-04-25T15:47:43;12.50;88.40
360;DHT22;168;48.872;9.226;2023-04-25T15:50:11;12.60;87.80
360;DHT22;168;48.872;9.226;2023-04-25T15:52:41;12.70;87.10
360;DHT22;168;48.872;9.226;2023-04-25T15:55:09;12.60;86.20
360;DHT22;168;48.872;9.226;2023-04-25T15:57:38;12.60;87.70
360;DHT22;168;48.872;9.226;2023-04-25T16:00:08;12.70;88.20
360;DHT22;168;48.872;9.226;2023-04-25T16:02:38;12.80;88.70
360;DHT22;168;48.872;9.226;2023-04-25T16:05:07;12.90;88.00
360;DHT22;168;48.872;9.226;2023-04-25T16:07:41;12.90;86.10
360;DHT22;168;48.872;9.226;2023-04-25T16:10:10;12.70;87.30
360;DHT22;168;48.872;9.226;2023-04-25T16:12:38;12.70;88.10
360;DHT22;168;48.872;9.226;2023-04-25T16:15:06;12.50;88.90
360;DHT22;168;48.872;9.226;2023-04-25T16:17:34;12.50;88.20
360;DHT22;168;48.872;9.226;2023-04-25T16:20:01;12.40;87.10
360;DHT22;168;48.872;9.226;2023-04-25T16:22:34;12.30;88.30
360;DHT22;168;48.872;9.226;2023-04-25T16:25:04;12.20;88.10
360;DHT22;168;48.872;9.226;2023-04-25T16:27:32;12.30;88.10
360;DHT22;168;48.872;9.226;2023-04-25T16:30:01;12.50;88.20
360;DHT22;168;48.872;9.226;2023-04-25T16:32:28;12.70;87.50
360;DHT22;168;48.872;9.226;2023-04-25T16:34:56;13.00;86.80
360;DHT22;168;48.872;9.226;2023-04-25T16:37:23;13.20;85.90
360;DHT22;168;48.872;9.226;2023-04-25T16:39:52;13.20;85.90
360;DHT22;168;48.872;9.226;2023-04-25T16:42:21;13.20;86.30
360;DHT22;168;48.872;9.226;2023-04-25T16:44:49;13.00;84.50
360;DHT22;168;48.872;9.226;2023-04-25T16:47:17;12.90;86.60
360;DHT22;168;48.872;9.226;2023-04-25T16:49:46;12.80;87.90
360;DHT22;168;48.872;9.226;2023-04-25T16:52:13;12.70;86.40
360;DHT22;168;48.872;9.226;2023-04-25T16:54:41;12.50;88.80
360;DHT22;168;48.872;9.226;2023-04-25T16:57:08;12.30;89.10